Listado único de aspirantes (Periodo de valoración 31 octubre de 2020)


* Listado ordenado por el total Autobaremo. Recuerde que también puede ordenarlo por Apellidos, Nombre

Listado único de aspirantes admitidos en turno libre en la bolsa de selección de personal estatutario temporal, categoría: Técnico Especialista Radiodiagnóstico
Apellidos, Nombre Exp. SAS Auto. Exp. NO SAS Auto. Form. Auto. otros méritos Total Auto. Exp. SAS Baremo Exp. NO SAS Baremo Form. Baremo Otros méritos Punt. Total Baremo Fecha Act.
PEINADO BUENO, ALICIA 0,100 0,000 7,600 0,000 7,700 0,100 0,000 7,600 0,000 7,700 21/07/2021
SAGASTA CORONEL, ANGEL 0,000 0,650 4,000 3,000 7,650 0,000 0,650 4,000 3,000 7,650 21/07/2021
GARCÍA SÁNCHEZ, CÉSAR AUGUSTO 0,000 0,000 7,625 0,000 7,625 0,000 0,000 7,625 0,000 7,625 21/07/2021
SÁNCHEZ CARO, SUSANA 0,000 0,000 7,625 0,000 7,625 0,000 0,000 7,000 0,000 7,000 21/07/2021
VILLAMOR RUIZ, ELENA MARÍA 3,550 0,050 4,000 0,000 7,600 3,550 0,050 4,000 0,000 7,600 21/07/2021
ESTEBAN TURIEL, YOLANDA 0,000 0,000 7,500 0,000 7,500 0,000 0,000 0,000 0,000 0,000 21/07/2021
GARCIA PASARON, PRISCILA 0,000 0,000 7,500 0,000 7,500 0,000 0,000 7,500 0,000 7,500 21/07/2021
JIMENEZ SANTOS, LARA 0,000 0,000 7,500 0,000 7,500 0,000 0,000 5,000 0,000 5,000 21/07/2021
KOUNTI MOULOUD, DEHDAH 0,000 0,400 7,100 0,000 7,500 0,000 0,200 4,000 0,000 4,200 21/07/2021
MORENO VERDUGO, MARIA 0,000 0,000 7,500 0,000 7,500 0,000 0,000 7,500 0,000 7,500 21/07/2021
PEDRAZA GARCÍA, FRANCISCO MANUEL 0,000 0,000 7,500 0,000 7,500 0,000 0,000 3,500 0,000 3,500 21/07/2021
PEÑA MARTÍN, CAROLINA 0,000 0,000 7,500 0,000 7,500 0,000 0,000 7,500 0,000 7,500 21/07/2021
MILLAN ALBA, RAQUEL 0,300 0,000 7,125 0,000 7,425 0,300 0,000 7,125 0,000 7,425 21/07/2021
RASTOLL SANCHEZ, MARIA CARMEN 0,000 0,000 7,400 0,000 7,400 0,000 0,000 6,900 0,000 6,900 21/07/2021
LÓPEZ MÁRQUEZ, JUANA MARÍA 0,300 1,800 5,250 0,000 7,350 0,300 1,500 5,250 0,000 7,050 21/07/2021
DORADO CASTILLEJO, TANIA 0,000 0,000 7,325 0,000 7,325 0,000 0,000 7,125 0,000 7,125 21/07/2021
ARCE LEON, OLAYA 0,700 2,600 4,000 0,000 7,300 0,700 2,600 4,000 0,000 7,300 21/07/2021
LUIS MOLINA, MANUEL 0,000 0,000 7,250 0,000 7,250 0,000 0,000 7,250 0,000 7,250 21/07/2021
MANZANO NAVARRO, JENNIFER 0,000 1,800 5,450 0,000 7,250 0,000 1,800 4,250 0,000 6,050 21/07/2021
MORENO RODRIGUEZ, TERE 1,850 3,050 2,350 0,000 7,250 1,850 3,050 0,800 0,000 5,700 21/07/2021
GOMEZ ROMERO, MONICA 1,650 1,550 4,000 0,000 7,200 1,650 1,550 4,000 0,000 7,200 21/07/2021
LÓPEZ MARTÍNEZ, ROSA Mª 2,950 0,150 4,000 0,000 7,100 2,950 0,150 4,000 0,000 7,100 21/07/2021
PIÑERO FERNANDEZ, NOELIA 0,000 0,600 6,500 0,000 7,100 0,000 0,600 6,500 0,000 7,100 21/07/2021
ESCRIBANO CALDERÓN, VERÓNICA 0,000 3,050 4,000 0,000 7,050 0,000 3,050 4,000 0,000 7,050 21/07/2021
LEÓN MATEOS, ÁNGELES 0,050 0,000 7,000 0,000 7,050 0,050 0,000 5,350 0,000 5,400 21/07/2021
AGUILERA VILLALBA, MARIA ISABEL 0,000 3,000 4,000 0,000 7,000 0,000 0,000 0,000 0,000 0,000 21/07/2021
ÍÑIGUEZ RODRÍGUEZ, Mª ESPERANZA 1,900 1,100 4,000 0,000 7,000 1,900 0,000 4,000 0,000 5,900 21/07/2021
JURADO OLID, AMELIA 0,000 0,000 7,000 0,000 7,000 0,000 0,000 2,500 0,000 2,500 21/07/2021
NIETO BARONA, MARIA LUISA 0,000 0,000 7,000 0,000 7,000 0,000 0,000 5,750 0,000 5,750 21/07/2021
ROMAN ARCOS, BELEN 3,000 0,000 4,000 0,000 7,000 3,000 0,000 4,000 0,000 7,000 21/07/2021
RUBIO MAROTO, SOFIA 0,000 3,000 4,000 0,000 7,000 0,000 3,000 4,000 0,000 7,000 21/07/2021
POMAR CARRACEDO, DIEGO 0,000 0,000 6,925 0,000 6,925 0,000 0,000 6,925 0,000 6,925 21/07/2021
ARROYO PARRA, MANUEL 0,000 0,000 6,900 0,000 6,900 0,000 0,000 6,900 0,000 6,900 21/07/2021
DIEZ GARCIA, MARIA 0,000 0,000 6,900 0,000 6,900 0,000 0,000 6,900 0,000 6,900 21/07/2021
FERNÁNDEZ CALDERÓN, JOSE MARÍA 0,000 0,000 6,875 0,000 6,875 0,000 0,000 6,875 0,000 6,875 21/07/2021
FERNANDEZ SEDEÑO, ANA AUXILIADORA 0,600 0,000 6,250 0,000 6,850 0,600 0,000 6,250 0,000 6,850 21/07/2021
SIMÓN PORTILLO, ALMUDENA 0,350 0,100 6,400 0,000 6,850 0,350 0,100 6,300 0,000 6,750 21/07/2021
ARJONA GARRIDO, ANGELA 0,000 0,000 6,750 0,000 6,750 0,000 0,000 5,500 0,000 5,500 21/07/2021
FERNANDEZ TRUJILLO, BEATRIZ 0,000 2,750 4,000 0,000 6,750 0,000 2,750 4,000 0,000 6,750 21/07/2021
GONZÁLEZ MORENO, ALICIA 0,000 2,750 4,000 0,000 6,750 0,000 2,000 4,000 0,000 6,000 21/07/2021
PÉREZ MARTÍN, OLGA 0,000 0,000 6,750 0,000 6,750 0,000 0,000 6,750 0,000 6,750 21/07/2021
SUÁREZ FERNÁNDEZ, ALBERTO TOMÁS 0,000 0,000 6,750 0,000 6,750 0,000 0,000 0,000 0,000 0,000 21/07/2021
VEGA PICÓN, MERCEDES 0,000 0,000 6,750 0,000 6,750 0,000 0,000 0,000 0,000 0,000 21/07/2021
FERRANDIZ BROTONS, ULISES 0,000 0,050 6,625 0,000 6,675 0,000 0,000 1,625 0,000 1,625 21/07/2021
TORRES SALAZAR, MARIA JESUS 2,650 0,000 4,000 0,000 6,650 2,650 0,000 4,000 0,000 6,650 21/07/2021
MELÉNDEZ GARRIDO, EMILIO 0,000 0,000 6,625 0,000 6,625 0,000 0,000 6,625 0,000 6,625 21/07/2021
BELTRAN CABALLERO, PATRICIA 0,000 0,000 6,600 0,000 6,600 0,000 0,000 0,000 0,000 0,000 21/07/2021
CARRASCO ÁVILA, FRANCISCA 1,600 0,000 4,500 0,500 6,600 1,600 0,000 4,500 0,000 6,100 21/07/2021
MORAL RUIZ, BEATRIZ 2,600 0,000 4,000 0,000 6,600 2,600 0,000 4,000 0,000 6,600 21/07/2021
NAVAS CAMPOY, GEMA CRISTINA 1,850 0,000 4,750 0,000 6,600 1,850 0,000 4,750 0,000 6,600 21/07/2021
SÁNCHEZ RAMÍREZ, NOELIA 0,900 1,700 4,000 0,000 6,600 0,900 1,700 4,000 0,000 6,600 21/07/2021
CANO CANO, GLORIA 0,000 2,550 4,000 0,000 6,550 0,000 0,650 0,000 0,000 0,650 21/07/2021
MARTINEZ MUÑOZ, CRISTINA 0,000 0,000 6,000 0,550 6,550 0,000 0,000 0,000 0,000 0,000 21/07/2021
PRIEGO AMO, INMACULADA 0,200 1,900 4,450 0,000 6,550 0,200 1,200 4,250 0,000 5,650 21/07/2021
CAMPANARIO MORENO, MARIA DE LOS ANGELES 0,000 0,000 6,500 0,000 6,500 0,000 0,000 4,000 0,000 4,000 21/07/2021
CARDADOR TROCOLI, CRISTINA 0,000 0,000 6,500 0,000 6,500 0,000 0,000 4,000 0,000 4,000 21/07/2021
ESTRADE MATEOS, ALBERTO 0,000 0,000 6,500 0,000 6,500 0,000 0,000 6,500 0,000 6,500 21/07/2021
GIL DIAZ, ISABEL 0,000 0,000 6,500 0,000 6,500 0,000 0,000 0,000 0,000 0,000 21/07/2021
MONTOYA SOSA, MANUEL 0,000 0,000 6,500 0,000 6,500 0,000 0,000 6,500 0,000 6,500 21/07/2021
MURILLO CECILLA, YESSICA R 0,000 0,000 6,500 0,000 6,500 0,000 0,000 0,000 0,000 0,000 21/07/2021
RODRIGUEZ MORENO, SARA 0,000 1,500 5,000 0,000 6,500 0,000 0,000 5,000 0,000 5,000 21/07/2021
AFANADOR BENITEZ, ANTONIA 1,700 0,750 4,000 0,000 6,450 1,700 0,750 4,000 0,000 6,450 21/07/2021
MARCHENA CASADO, NATALIA 0,000 0,000 6,450 0,000 6,450 0,000 0,000 6,450 0,000 6,450 21/07/2021
SERRANO HERRERA, MARIA JOSE 2,450 0,000 4,000 0,000 6,450 2,450 0,000 4,000 0,000 6,450 21/07/2021
CABALLERO BLANCO, ABRAHAM 0,000 0,000 6,400 0,000 6,400 0,000 0,000 6,400 0,000 6,400 21/07/2021
MENDIZÁBAL ROMERO, ANA ELENA 0,000 0,400 6,000 0,000 6,400 0,000 0,000 6,000 0,000 6,000 21/07/2021
PACHECO RODRIGUEZ, GEMA 0,000 2,400 4,000 0,000 6,400 0,000 0,000 4,000 0,000 4,000 21/07/2021
ROSALES BELMONTE, SILVIA 0,000 2,400 4,000 0,000 6,400 0,000 2,400 4,000 0,000 6,400 21/07/2021
LOPEZ HERMOSO, ANTONIO 0,600 0,000 5,750 0,000 6,350 0,600 0,000 0,000 0,000 0,600 21/07/2021
URREA TORREGROSA, PAULA 0,000 0,000 6,350 0,000 6,350 0,000 0,000 0,750 0,000 0,750 21/07/2021
FERNANDEZ MARTINEZ, RAQUEL 2,200 0,100 4,000 0,000 6,300 2,200 0,100 0,000 0,000 2,300 21/07/2021
DOMÍNGUEZ MARÍN, ÁLVARO 0,000 0,000 6,250 0,000 6,250 0,000 0,000 3,750 0,000 3,750 21/07/2021
SANTANA BERLANGA, NICIA DEL ROCIO 0,250 2,000 4,000 0,000 6,250 0,250 0,650 4,000 0,000 4,900 21/07/2021
CORDONES CAMPON, ANA ISABEL 0,000 2,200 4,000 0,000 6,200 0,000 0,000 4,000 0,000 4,000 21/07/2021
FERNÁNDEZ URBANEJA, FRANCISCA 0,000 0,000 6,200 0,000 6,200 0,000 0,000 4,350 0,000 4,350 21/07/2021
SALVADOR COLORADO, Mª JOSÉ 0,000 0,000 6,175 0,000 6,175 0,000 0,000 6,175 0,000 6,175 21/07/2021
BORRUECO GÓMEZ, MÓNICA 2,150 0,000 4,000 0,000 6,150 2,150 0,000 4,000 0,000 6,150 21/07/2021
CAMPOY RAMIREZ, DANIEL 0,000 2,150 4,000 0,000 6,150 0,000 2,150 4,000 0,000 6,150 21/07/2021
GUTIÉRREZ GIMÉNEZ, JUAN JOSÉ 0,000 2,150 4,000 0,000 6,150 0,000 0,800 4,000 0,000 4,800 21/07/2021
HURTADO CAZORLA, MARIA JOSÉ 2,150 0,000 4,000 0,000 6,150 2,150 0,000 4,000 0,000 6,150 21/07/2021
GÁMEZ BLANCO, RAQUEL DEL PILAR 0,850 1,250 4,000 0,000 6,100 0,850 1,000 4,000 0,000 5,850 21/07/2021
GARCIA VILLALON, PEDRO DAMIAN 2,100 0,000 4,000 0,000 6,100 2,100 0,000 4,000 0,000 6,100 21/07/2021
LÓPEZ GONZÁLEZ, JOSÉ MARÍA 0,000 2,100 4,000 0,000 6,100 0,000 2,100 4,000 0,000 6,100 21/07/2021
RAMÍREZ ALCARAZ, MARIA DEL MAR 0,000 0,000 6,100 0,000 6,100 0,000 0,000 6,100 0,000 6,100 21/07/2021
GARCÍA MONTERO, MARTA 0,000 0,000 6,050 0,000 6,050 0,000 0,000 4,000 0,000 4,000 21/07/2021
JARA GARDE, ALBERTO 1,300 0,750 4,000 0,000 6,050 1,300 0,750 4,000 0,000 6,050 21/07/2021
LOPEZ JIMENEZ, ANA CRISTINA 0,700 1,350 4,000 0,000 6,050 0,700 1,350 4,000 0,000 6,050 21/07/2021
MALDONADO BELLIDO, Mº CARMEN 3,600 0,900 1,550 0,000 6,050 3,600 0,000 1,550 0,000 5,150 21/07/2021
MORENO QUIRÓS, MERCEDES 0,250 0,150 5,650 0,000 6,050 0,250 0,000 4,000 0,000 4,250 21/07/2021
ALVAREZ GARCIA, ISABEL MARIA 6,000 0,000 0,000 0,000 6,000 6,000 0,000 0,000 0,000 6,000 21/07/2021
BALSERA ALCALÁ, ROSA 0,000 0,000 6,000 0,000 6,000 0,000 0,000 1,250 0,000 1,250 21/07/2021
GARCIA GUTIERREZ, ALBERTO 0,000 0,000 6,000 0,000 6,000 0,000 0,000 6,000 0,000 6,000 21/07/2021
LÓPEZ FERNÁNDEZ, SAIDA 0,850 0,150 5,000 0,000 6,000 0,850 0,000 0,000 0,000 0,850 21/07/2021
MARQUEZ HERRERA, VICENTE 0,000 6,000 0,000 0,000 6,000 0,000 2,600 0,000 0,000 2,600 21/07/2021
OSTOS GÓMEZ, LUIS CARLOS 0,000 0,000 6,000 0,000 6,000 0,000 0,000 4,000 0,000 4,000 21/07/2021
PÉREZ ESPUNY, BELÉN 0,050 1,950 4,000 0,000 6,000 0,050 1,350 4,000 0,000 5,400 21/07/2021
ROMERO GALINDO, MIRIAM 0,000 0,000 6,000 0,000 6,000 0,000 0,000 6,000 0,000 6,000 21/07/2021
SÁNCHEZ ARANDA, IRENE 0,000 2,000 4,000 0,000 6,000 0,000 2,000 4,000 0,000 6,000 21/07/2021
SANTOVEÑA MUÑIZ, LUIS ENRIQUE 1,500 0,000 4,500 0,000 6,000 1,500 0,000 4,000 0,000 5,500 21/07/2021
BLANQUE DIAZ, MONICA 0,000 0,250 5,700 0,000 5,950 0,000 0,000 0,000 0,000 0,000 21/07/2021
CARBONERO GARCÍA, LAURA 1,950 0,000 4,000 0,000 5,950 1,950 0,000 4,000 0,000 5,950 21/07/2021
FERNANDEZ LOPEZ, LIDIA ESTELA 0,000 1,200 4,750 0,000 5,950 0,000 0,000 0,000 0,000 0,000 21/07/2021
GÁLVEZ DEL RÍO, FRANCISCA 0,000 1,950 4,000 0,000 5,950 0,000 0,000 0,000 0,000 0,000 21/07/2021
VENEGAS ORTIZ, SHEILA 0,550 1,400 4,000 0,000 5,950 0,550 1,400 4,000 0,000 5,950 21/07/2021
FLORES CARO, AROA 0,000 0,000 5,900 0,000 5,900 0,000 0,000 5,900 0,000 5,900 21/07/2021
HIDALGO CASIELLES, LAURA 1,150 0,750 4,000 0,000 5,900 1,150 0,000 4,000 0,000 5,150 21/07/2021
PIGNE MARIN, JESUS ANTONIO 0,900 1,000 4,000 0,000 5,900 0,900 1,000 4,000 0,000 5,900 21/07/2021
MEDINA MARTIN, JOSE ANTONIO 0,000 0,000 5,875 0,000 5,875 0,000 0,000 1,300 0,000 1,300 21/07/2021
ARANDA GARCIA, ANA MARIA 1,850 0,000 4,000 0,000 5,850 1,850 0,000 4,000 0,000 5,850 21/07/2021
CARNEROS ROBLES, MARIA LOURDES 0,000 0,000 5,850 0,000 5,850 0,000 0,000 0,800 0,000 0,800 21/07/2021
MONTESINOS VILLALBA, MARIA CRISTINA 0,000 1,850 4,000 0,000 5,850 0,000 1,850 4,000 0,000 5,850 21/07/2021
NARANJO GALAN, CARMEN 1,100 0,000 4,750 0,000 5,850 1,100 0,000 4,000 0,000 5,100 21/07/2021
NAVARRO RUIZ, PATRICIA 0,900 0,050 4,875 0,000 5,825 0,900 0,050 4,875 0,000 5,825 21/07/2021
LAVADO LOPEZ, PEDRO 0,000 1,800 4,000 0,000 5,800 0,000 0,900 0,000 0,000 0,900 21/07/2021
SAYAVERA ROMERO, TAMARA 0,400 1,400 4,000 0,000 5,800 0,400 1,400 4,000 0,000 5,800 21/07/2021
CUESTA BOLAÑOS, ASUNCION 0,300 0,000 5,475 0,000 5,775 0,300 0,000 5,475 0,000 5,775 21/07/2021
GALEOTE BENAVIDES, ADORACION 0,000 0,000 5,725 0,050 5,775 0,000 0,000 3,800 0,000 3,800 21/07/2021
CORNEJO GARCIA, INES MARIA 1,200 0,700 0,850 3,000 5,750 1,200 0,000 0,000 3,000 4,200 21/07/2021
ALONSO BLANCO, Mª DE LA ESTRELLA 1,700 0,000 4,000 0,000 5,700 1,700 0,000 4,000 0,000 5,700 21/07/2021
MEDINA SOBRINO, ALEJANDRA 1,700 0,000 4,000 0,000 5,700 1,700 0,000 4,000 0,000 5,700 21/07/2021
SABORIDO PALOMO, ELENA 0,600 2,100 3,000 0,000 5,700 0,600 0,000 3,000 0,000 3,600 21/07/2021
SANCHEZ CHUECOS, ROSA MARIA 0,000 2,700 2,975 0,000 5,675 0,000 1,200 1,050 0,000 2,250 21/07/2021
GARCIA BLANCAS, RAFAEL 0,000 0,000 5,650 0,000 5,650 0,000 0,000 0,000 0,000 0,000 21/07/2021
GARRIDO GUTIERREZ, ANTONIO 0,150 1,500 4,000 0,000 5,650 0,150 0,200 4,000 0,000 4,350 21/07/2021
VARGAS MONTES, FRANCISCO JAVIER 0,000 0,000 5,650 0,000 5,650 0,000 0,000 0,000 0,000 0,000 21/07/2021
COLMENERO HIDALGO, MARIA DOLORES 2,600 0,000 3,025 0,000 5,625 2,600 0,000 0,000 0,000 2,600 21/07/2021
MUÑOZ ANDUGAR, FERNANDO JOSE 0,000 2,750 2,875 0,000 5,625 0,000 2,750 0,375 0,000 3,125 21/07/2021
ASENSIO SOLER, MARIA BELEN 5,600 0,000 0,000 0,000 5,600 5,600 0,000 0,000 0,000 5,600 21/07/2021
BERSABÉ HIDALGO, EVA MARÍA 0,000 1,600 4,000 0,000 5,600 0,000 1,550 4,000 0,000 5,550 21/07/2021
LORA ESCALANTE, MARIA 0,000 3,600 2,000 0,000 5,600 0,000 1,200 0,000 0,000 1,200 21/07/2021
MEDINA VELASCO, ANA 0,000 0,000 5,600 0,000 5,600 0,000 0,000 5,600 0,000 5,600 21/07/2021
ROMERO MONTERROSO, MARGARITA 1,450 0,150 4,000 0,000 5,600 1,450 0,150 4,000 0,000 5,600 21/07/2021
ESCUDERO UCEDA, VANESA 0,000 1,550 4,000 0,000 5,550 0,000 1,550 4,000 0,000 5,550 21/07/2021
FERNANDEZ MARIN, ROSARIO 1,550 0,000 4,000 0,000 5,550 1,550 0,000 4,000 0,000 5,550 21/07/2021
PRADOS GARCÍA, EVA 0,000 0,000 5,550 0,000 5,550 0,000 0,000 5,550 0,000 5,550 21/07/2021
IBAÑEZ VEGA, JUANA 3,150 0,000 2,375 0,000 5,525 3,150 0,000 0,000 0,000 3,150 21/07/2021
GUZMÁN MAESTRE, ROCIO 0,000 0,000 5,500 0,000 5,500 0,000 0,000 1,500 0,000 1,500 21/07/2021
RODRIGUEZ LOPEZ, ELISABET 0,000 1,500 4,000 0,000 5,500 0,000 0,000 4,000 0,000 4,000 21/07/2021
NARANJO RUBIO, CRISTINA 1,450 0,000 4,000 0,000 5,450 1,450 0,000 4,000 0,000 5,450 21/07/2021
VERA SEGOVIA, IGNACIO 0,000 0,000 5,450 0,000 5,450 0,000 0,000 0,000 0,000 0,000 21/07/2021
ABBODANDOLO VITALE, MARCO ANTONIO 0,000 5,400 0,000 0,000 5,400 0,000 0,000 0,000 0,000 0,000 21/07/2021
CABRERA RODRIGUEZ, JUAN JOSE 0,000 1,400 4,000 0,000 5,400 0,000 1,000 4,000 0,000 5,000 21/07/2021
DESMEURS HERNANDEZ, PILAR 0,000 0,400 5,000 0,000 5,400 0,000 0,000 0,000 0,000 0,000 21/07/2021
SANTAMARÍA SÁNCHEZ, MARTA 0,000 2,400 3,000 0,000 5,400 0,000 0,000 0,000 0,000 0,000 21/07/2021
ORTIZ CORTIJO, MARÍA 1,050 0,300 4,000 0,000 5,350 1,050 0,300 4,000 0,000 5,350 21/07/2021
CABELLO SAMPEDRO, VANESA 0,050 1,250 4,000 0,000 5,300 0,050 0,850 4,000 0,000 4,900 21/07/2021
GARCIA GUERRERO, MARINA 1,250 0,050 4,000 0,000 5,300 1,250 0,050 4,000 0,000 5,300 21/07/2021
JIMENEZ BUSTAMANTE, ALICIA MARIA 1,250 0,050 4,000 0,000 5,300 1,250 0,050 4,000 0,000 5,300 21/07/2021
MARTÍN JIMÉNEZ, PALOMA 0,000 0,000 5,300 0,000 5,300 0,000 0,000 5,300 0,000 5,300 21/07/2021
SANZ LOZANO, MARIA JESUS 1,300 0,000 4,000 0,000 5,300 1,300 0,000 4,000 0,000 5,300 21/07/2021
SARMIENTO DURÁN, NIEVES 0,000 1,300 4,000 0,000 5,300 0,000 0,900 4,000 0,000 4,900 21/07/2021
GAMERO GODINO, CARLOS 0,000 0,000 5,250 0,000 5,250 0,000 0,000 0,000 0,000 0,000 21/07/2021
LÓPEZ GUERRERO, FRANCISCO JAVIER 0,000 1,100 4,150 0,000 5,250 0,000 0,000 0,000 0,000 0,000 21/07/2021
MORALES LUQUE, ESTEFANÍA 1,250 0,000 4,000 0,000 5,250 1,250 0,000 4,000 0,000 5,250 21/07/2021
TOLEDO LARREA, ELENA 0,000 0,000 5,250 0,000 5,250 0,000 0,000 4,000 0,000 4,000 21/07/2021
GONZÁLEZ PEDROSA, NIEVES MARIA 0,000 0,000 5,200 0,000 5,200 0,000 0,000 5,200 0,000 5,200 21/07/2021
GARCIA AMADOR, RAQUEL 0,000 0,000 5,175 0,000 5,175 0,000 0,000 4,925 0,000 4,925 21/07/2021
BONILLA ALÉ, ALBA 0,000 1,150 4,000 0,000 5,150 0,000 1,150 4,000 0,000 5,150 21/07/2021
BUENO ALCÁNTARA, MARINA 0,000 2,400 2,750 0,000 5,150 0,000 0,000 0,000 0,000 0,000 21/07/2021
GUILLEN SANCHEZ, MIGUEL ANGEL 0,000 1,900 0,225 3,000 5,125 0,000 0,000 0,000 3,000 3,000 21/07/2021
MOLINARES IBÁÑEZ, ESTEFANIA 0,400 0,100 4,625 0,000 5,125 0,400 0,100 4,625 0,000 5,125 21/07/2021
LOPEZ RODRIGUEZ, ESTEFANIA 1,100 0,000 4,000 0,000 5,100 1,100 0,000 4,000 0,000 5,100 21/07/2021
MOLERO ORTIZ, ROCIO 0,000 1,000 4,100 0,000 5,100 0,000 0,000 4,000 0,000 4,000 21/07/2021
MORA GONZÁLEZ, PABLO 1,100 0,000 4,000 0,000 5,100 1,100 0,000 4,000 0,000 5,100 21/07/2021
PACHECO RODRÍGUEZ, ZARA 0,250 0,850 4,000 0,000 5,100 0,250 0,850 4,000 0,000 5,100 21/07/2021
HUERTAS CHAMIZO, Mª DE GUADALUPE 0,000 4,700 0,375 0,000 5,075 0,000 0,000 0,000 0,000 0,000 21/07/2021
FERNÁNDEZ ANSOTEGUI, ALBA 0,000 0,000 5,050 0,000 5,050 0,000 0,000 5,050 0,000 5,050 21/07/2021
JIMÉNEZ NÚÑEZ, DANIEL 0,350 0,700 4,000 0,000 5,050 0,350 0,000 4,000 0,000 4,350 21/07/2021
ORTEGA LÓPEZ, CRISTINA 0,000 1,050 4,000 0,000 5,050 0,000 0,000 0,000 0,000 0,000 21/07/2021
ROBLES RODRIGUEZ, JAIRO 0,000 0,000 5,050 0,000 5,050 0,000 0,000 5,050 0,000 5,050 21/07/2021
YEBRA RODRIGUEZ, LYDIA 0,900 0,150 4,000 0,000 5,050 0,900 0,150 4,000 0,000 5,050 21/07/2021
BAHAMONTES VAZQUEZ, VIRGINIA MARIA 0,000 1,000 4,000 0,000 5,000 0,000 0,000 4,000 0,000 4,000 21/07/2021
BOY ARIAS, CARMEN Mª 0,000 0,000 5,000 0,000 5,000 0,000 0,000 4,000 0,000 4,000 21/07/2021
CASTRO GRANADOS, ANA 0,000 0,000 5,000 0,000 5,000 0,000 0,000 0,000 0,000 0,000 21/07/2021
DE LA O ORDÓÑEZ, MARTA 0,000 0,000 5,000 0,000 5,000 0,000 0,000 4,000 0,000 4,000 21/07/2021
DÍAZ PALACIOS, JOSE ANTONIO 0,000 0,000 5,000 0,000 5,000 0,000 0,000 5,000 0,000 5,000 21/07/2021
FACAL RODRÍGUEZ, LUIS ALBERTO 0,000 0,000 5,000 0,000 5,000 0,000 0,000 5,000 0,000 5,000 21/07/2021
GUERRERO SORIANO, MARIA ISABEL 0,600 0,400 4,000 0,000 5,000 0,600 0,400 4,000 0,000 5,000 21/07/2021
MARCO FENOLL, MARÍA DOLORES 0,000 0,000 5,000 0,000 5,000 0,000 0,000 0,000 0,000 0,000 21/07/2021
MILLAN GORDILLO, MARIA DEL CARMEN 0,000 0,000 5,000 0,000 5,000 0,000 0,000 0,000 0,000 0,000 21/07/2021
RUIZ AGUILERA, GEMA 0,000 0,000 5,000 0,000 5,000 0,000 0,000 5,000 0,000 5,000 21/07/2021
SANCHEZ LOBATO, MIGUEL 0,000 0,000 5,000 0,000 5,000 0,000 0,000 0,000 0,000 0,000 21/07/2021
YÁÑEZ MORENO, ENCARNACIÓN 0,000 0,000 5,000 0,000 5,000 0,000 0,000 5,000 0,000 5,000 21/07/2021
MACHADO ROMACHO, JOSÉ ANTONIO 0,000 0,000 4,915 0,000 4,915 0,000 0,000 0,000 0,000 0,000 21/07/2021
GALLARDO CAÑAMERO, JORGE 0,900 0,000 4,000 0,000 4,900 0,900 0,000 4,000 0,000 4,900 21/07/2021
RODRÍGUEZ CORTÉS, FRANCISCO JOSÉ 0,900 0,000 4,000 0,000 4,900 0,900 0,000 4,000 0,000 4,900 21/07/2021
MORAL BELTRÁN, JAVIER 0,000 0,000 4,875 0,000 4,875 0,000 0,000 4,875 0,000 4,875 21/07/2021
MUÑOZ BUJALANCE, JESÚS 0,000 0,000 4,875 0,000 4,875 0,000 0,000 4,000 0,000 4,000 21/07/2021
LOPEZ GARCET, CLARA 0,450 0,400 4,000 0,000 4,850 0,450 0,000 4,000 0,000 4,450 21/07/2021
QUESADA LARA, MARÍA ISABEL 0,350 0,500 4,000 0,000 4,850 0,350 0,500 4,000 0,000 4,850 21/07/2021
BRAZA SERRANO, FIORDALIZA 0,000 4,800 0,000 0,000 4,800 0,000 0,000 0,000 0,000 0,000 21/07/2021
HERNANDEZ ESCAMEZ, MARÍA 0,000 0,800 4,000 0,000 4,800 0,000 0,000 4,000 0,000 4,000 21/07/2021
MARTÍNEZ GARCÍA, FRANCISCO 0,050 0,700 4,000 0,000 4,750 0,050 0,700 4,000 0,000 4,750 21/07/2021
RAMIREZ BERNAL, SANDRA 0,050 0,700 4,000 0,000 4,750 0,050 0,400 4,000 0,000 4,450 21/07/2021
RUIZ RODRIGUEZ, NATALIA 1,250 0,000 2,500 1,000 4,750 1,250 0,000 2,500 0,000 3,750 21/07/2021
ORELLANA MACÍAS, ISABEL MARIA 0,700 0,000 4,000 0,000 4,700 0,700 0,000 4,000 0,000 4,700 21/07/2021
RUIZ GONZALEZ, ROCIO 0,700 0,000 4,000 0,000 4,700 0,700 0,000 4,000 0,000 4,700 21/07/2021
ALBEA CRIVICICH, BLANCA 0,650 0,000 4,000 0,000 4,650 0,650 0,000 4,000 0,000 4,650 21/07/2021
CORREAL ROMÁN, ANGEL LUCAS 0,650 0,000 4,000 0,000 4,650 0,650 0,000 4,000 0,000 4,650 21/07/2021
ORTEGA IBÁÑEZ, ALBA Mª 0,550 0,100 4,000 0,000 4,650 0,550 0,000 4,000 0,000 4,550 21/07/2021

- Al posicionarse sobre el número de página le aparecerá el rango de notas de autobaremo que contiene dicha página

[1]  [2]  [3]  [4]  [5]  [6]  [7]  [8]  [9]  [10]  [11]  [12]  [13]  [14]  [15]  [16]  [17]  [18]  [19]  [20]  [21]  [22]  [23]  [24]  [25]  [26]  [27]  [28]  [29]  [30]  [31]  [32]  [33]  [34]  [35] 


Color de candidatos/as que por autobaremo alcanzan puntuación mínima para formar parte de la bolsa Candidatos/as que por autobaremo alcanzan puntuación mínima para formar parte de la bolsa

Color de Candidatos/as que no alcanzan puntuación mínima para formar parte de la bolsa Candidatos/as que no alcanzan puntuación mínima para formar parte de la bolsa



[Volver]